createdAt,value
2017-07-05T00:00:57.484Z,2.50
2017-07-05T00:03:24.941Z,2.50
2017-07-05T00:05:52.347Z,2.63
2017-07-05T00:08:19.759Z,2.50
2017-07-05T00:10:47.174Z,2.50
2017-07-05T00:13:14.640Z,2.70
2017-07-05T00:15:42.762Z,2.43
2017-07-05T00:18:10.956Z,3.00
2017-07-05T00:20:38.372Z,2.70
2017-07-05T00:23:05.786Z,2.37
2017-07-05T00:25:33.199Z,2.50
2017-07-05T00:28:01.439Z,2.40
2017-07-05T00:30:28.851Z,2.27
2017-07-05T00:32:56.326Z,2.10
2017-07-05T00:35:23.741Z,2.60
2017-07-05T00:37:51.160Z,2.30
2017-07-05T00:40:18.564Z,2.63
2017-07-05T00:42:46.754Z,2.50
2017-07-05T00:45:14.156Z,2.30
2017-07-05T00:47:41.578Z,2.40
2017-07-05T00:50:08.983Z,2.30
2017-07-05T00:52:36.400Z,2.93
2017-07-05T00:55:03.812Z,2.37
2017-07-05T00:57:31.268Z,2.80
2017-07-05T00:59:59.463Z,2.50
2017-07-05T01:02:26.878Z,2.60
2017-07-05T01:04:54.300Z,2.80
2017-07-05T01:07:21.720Z,2.70
2017-07-05T01:09:49.906Z,2.40
2017-07-05T01:12:17.312Z,2.70
2017-07-05T01:14:44.730Z,2.40
2017-07-05T01:17:12.137Z,2.40
2017-07-05T01:19:40.323Z,2.50
2017-07-05T01:22:08.515Z,2.50
2017-07-05T01:24:35.931Z,2.73
2017-07-05T01:27:03.346Z,2.40
2017-07-05T01:29:30.760Z,2.70
2017-07-05T01:31:58.939Z,2.50
2017-07-05T01:34:27.132Z,2.60
2017-07-05T01:36:54.555Z,2.97
2017-07-05T01:39:21.956Z,2.47
2017-07-05T01:41:49.368Z,2.83
2017-07-05T01:44:17.594Z,2.70
2017-07-05T01:49:25.287Z,3.03
2017-07-05T01:51:52.703Z,2.33
2017-07-05T01:54:20.219Z,2.43
2017-07-05T01:56:47.648Z,2.97
2017-07-05T01:59:15.075Z,2.77
2017-07-05T02:01:43.251Z,2.57
2017-07-05T02:04:11.435Z,3.17
2017-07-05T02:06:39.617Z,2.70
2017-07-05T02:09:07.094Z,2.60
2017-07-05T02:11:34.499Z,2.97
2017-07-05T02:14:02.008Z,2.73
2017-07-05T02:16:29.425Z,3.03
2017-07-05T02:18:57.603Z,2.90
2017-07-05T02:21:25.784Z,2.77
2017-07-05T02:23:53.970Z,2.60
2017-07-05T02:26:21.383Z,2.40
2017-07-05T02:28:48.799Z,2.90
2017-07-05T02:31:16.216Z,3.50
2017-07-05T02:33:44.384Z,2.67
2017-07-05T02:36:12.563Z,3.10
2017-07-05T02:38:40.751Z,3.17
2017-07-05T02:41:08.164Z,3.10
2017-07-05T02:43:35.574Z,2.90
2017-07-05T02:46:02.983Z,2.93
2017-07-05T02:48:30.399Z,2.97
2017-07-05T02:50:57.816Z,2.90
2017-07-05T02:53:25.992Z,3.00
2017-07-05T02:55:54.171Z,2.60
2017-07-05T02:58:21.583Z,2.80
2017-07-05T03:00:49.013Z,2.73
2017-07-05T03:03:16.440Z,2.80
2017-07-05T03:05:43.852Z,2.97
2017-07-05T03:08:12.283Z,2.40
2017-07-05T03:10:39.711Z,2.60
2017-07-05T03:13:07.132Z,2.63
2017-07-05T03:15:34.539Z,3.10
2017-07-05T03:18:02.719Z,2.70
2017-07-05T03:20:30.131Z,3.47
2017-07-05T03:22:57.543Z,2.93
2017-07-05T03:25:24.961Z,3.13
2017-07-05T03:27:53.163Z,3.37
2017-07-05T03:30:20.591Z,3.50
2017-07-05T03:32:48.762Z,3.00
2017-07-05T03:35:16.940Z,3.30
2017-07-05T03:37:45.123Z,3.17
2017-07-05T03:40:13.312Z,3.40
2017-07-05T03:42:40.719Z,4.80
2017-07-05T03:45:08.141Z,4.00
2017-07-05T03:47:35.556Z,3.73
2017-07-05T03:50:03.788Z,4.10
2017-07-05T03:52:31.187Z,3.67
2017-07-05T03:54:59.382Z,3.93
2017-07-05T03:57:26.792Z,4.20
2017-07-05T03:59:54.192Z,4.00
2017-07-05T04:02:21.616Z,3.73
2017-07-05T04:04:49.080Z,3.30
2017-07-05T04:07:17.272Z,3.50
2017-07-05T04:09:44.691Z,3.80
2017-07-05T04:12:12.118Z,3.90
2017-07-05T04:14:39.541Z,3.77
2017-07-05T04:17:06.955Z,4.00
2017-07-05T04:19:34.367Z,3.83
2017-07-05T04:22:01.785Z,3.73
2017-07-05T04:24:29.958Z,4.33
2017-07-05T04:26:58.139Z,4.50
2017-07-05T04:29:26.308Z,4.10
2017-07-05T04:31:54.487Z,3.80
2017-07-05T04:34:22.671Z,4.30
2017-07-05T04:36:50.097Z,5.03
2017-07-05T04:39:17.506Z,4.17
2017-07-05T04:41:44.924Z,4.13
2017-07-05T04:44:13.097Z,4.00
2017-07-05T04:46:41.280Z,4.47
2017-07-05T04:49:08.698Z,4.37
2017-07-05T04:51:36.160Z,3.80
2017-07-05T04:54:03.564Z,3.97
2017-07-05T04:56:30.977Z,5.80
2017-07-05T04:58:58.383Z,3.83
2017-07-05T05:01:25.808Z,4.70
2017-07-05T05:03:53.983Z,3.73
2017-07-05T05:06:22.167Z,4.07
2017-07-05T05:08:49.575Z,4.57
2017-07-05T05:11:17.008Z,4.10
2017-07-05T05:13:44.424Z,4.13
2017-07-05T05:16:12.607Z,4.20
2017-07-05T05:18:40.072Z,3.83
2017-07-05T05:21:07.488Z,4.50
2017-07-05T05:23:34.899Z,3.87
2017-07-05T05:26:02.311Z,4.20
2017-07-05T05:28:30.508Z,4.30
2017-07-05T05:30:57.915Z,3.90
2017-07-05T05:33:25.444Z,3.70
2017-07-05T05:35:52.856Z,3.87
2017-07-05T05:38:21.051Z,3.80
2017-07-05T05:40:48.463Z,3.90
2017-07-05T05:43:15.891Z,3.90
2017-07-05T05:45:43.312Z,4.27
2017-07-05T05:48:10.749Z,3.97
2017-07-05T05:50:38.923Z,3.77
2017-07-05T05:53:07.106Z,3.80
2017-07-05T05:55:35.295Z,3.70
2017-07-05T05:58:02.711Z,4.10
2017-07-05T06:00:30.113Z,3.67
2017-07-05T06:02:57.528Z,3.67
2017-07-05T06:05:25.707Z,3.97
2017-07-05T06:07:53.923Z,3.33
2017-07-05T06:10:21.339Z,3.47
2017-07-05T06:12:49.602Z,3.77
2017-07-05T06:15:17.007Z,4.00
2017-07-05T06:17:44.422Z,4.00
2017-07-05T06:20:12.609Z,3.47
2017-07-05T06:22:40.787Z,3.93
2017-07-05T06:25:08.211Z,4.00
2017-07-05T06:27:35.680Z,4.23
2017-07-05T06:30:03.044Z,4.20
2017-07-05T06:32:31.224Z,4.63
2017-07-05T06:34:58.662Z,4.20
2017-07-05T06:37:26.843Z,4.37
2017-07-05T06:39:55.036Z,5.03
2017-07-05T06:42:22.448Z,4.60
2017-07-05T06:44:49.868Z,5.60
2017-07-05T06:47:17.298Z,5.00
2017-07-05T06:49:44.703Z,5.20
2017-07-05T06:52:12.119Z,5.87
2017-07-05T06:54:39.537Z,6.07
2017-07-05T06:57:07.720Z,4.43
2017-07-05T06:59:35.904Z,4.13
2017-07-05T07:02:03.322Z,5.60
2017-07-05T07:04:30.744Z,4.03
2017-07-05T07:06:58.162Z,4.40
2017-07-05T07:09:26.352Z,4.27
2017-07-05T07:11:54.203Z,5.17
2017-07-05T07:14:22.398Z,4.70
2017-07-05T07:16:49.811Z,4.03
2017-07-05T07:19:18.001Z,3.50
2017-07-05T07:21:46.177Z,4.20
2017-07-05T07:24:14.360Z,4.10
2017-07-05T07:26:41.769Z,4.27
2017-07-05T07:29:09.188Z,4.00
2017-07-05T07:31:36.604Z,4.43
2017-07-05T07:34:04.027Z,7.03
2017-07-05T07:36:31.456Z,5.87
2017-07-05T07:38:59.364Z,5.10
2017-07-05T07:41:26.812Z,8.43
2017-07-05T07:43:54.251Z,9.20
2017-07-05T07:46:21.702Z,11.20
2017-07-05T07:48:49.122Z,10.70
2017-07-05T07:51:17.332Z,12.60
2017-07-05T07:53:44.776Z,11.37
2017-07-05T07:56:12.227Z,9.30
2017-07-05T07:58:39.701Z,7.93
2017-07-05T08:01:07.125Z,9.83
2017-07-05T08:03:34.540Z,7.60
2017-07-05T08:06:01.965Z,11.33
2017-07-05T08:08:29.372Z,10.93
2017-07-05T08:10:57.560Z,11.17
2017-07-05T08:13:24.979Z,7.00
2017-07-05T08:15:52.392Z,5.70
2017-07-05T08:18:19.825Z,6.33
2017-07-05T08:20:47.244Z,6.20
2017-07-05T08:23:14.654Z,6.27
2017-07-05T08:25:42.081Z,8.53
2017-07-05T08:28:10.311Z,6.93
2017-07-05T08:30:37.722Z,8.00
2017-07-05T08:33:05.152Z,8.60
2017-07-05T08:35:32.578Z,6.40
2017-07-05T08:37:59.989Z,7.00
2017-07-05T08:40:27.408Z,7.00
2017-07-05T08:42:54.821Z,6.10
2017-07-05T08:45:22.244Z,7.20
2017-07-05T08:47:50.432Z,6.97
2017-07-05T08:50:17.853Z,8.60
2017-07-05T08:52:45.267Z,9.20
2017-07-05T08:55:12.684Z,9.03
2017-07-05T08:57:40.856Z,9.30
2017-07-05T09:00:09.065Z,8.47
2017-07-05T09:02:36.788Z,9.00
2017-07-05T09:05:04.960Z,7.60
2017-07-05T09:07:33.164Z,7.40
2017-07-05T09:10:01.332Z,9.63
2017-07-05T09:12:29.539Z,7.23
2017-07-05T09:14:56.937Z,7.47
2017-07-05T09:17:25.160Z,7.80
2017-07-05T09:19:52.572Z,8.40
2017-07-05T09:22:20.775Z,9.10
2017-07-05T09:24:48.241Z,10.03
2017-07-05T09:27:15.649Z,9.67
2017-07-05T09:29:43.831Z,8.33
2017-07-05T09:32:12.017Z,9.10
2017-07-05T09:34:39.435Z,9.23
2017-07-05T09:37:06.854Z,8.37
2017-07-05T09:39:34.255Z,8.90
2017-07-05T09:42:13.534Z,10.00
2017-07-05T09:44:47.419Z,9.00
2017-07-05T09:47:17.256Z,9.40
2017-07-05T09:49:44.671Z,9.13
2017-07-05T09:52:12.063Z,8.50
2017-07-05T09:54:39.479Z,8.47
2017-07-05T09:57:07.668Z,9.10
2017-07-05T09:59:35.844Z,9.87
2017-07-05T10:02:03.275Z,8.80
2017-07-05T10:04:30.686Z,9.50
2017-07-05T10:06:58.141Z,9.47
2017-07-05T10:09:25.595Z,7.90
2017-07-05T10:11:53.031Z,9.17
2017-07-05T10:14:20.468Z,8.90
2017-07-05T10:16:48.664Z,7.07
2017-07-05T10:19:16.087Z,7.40
2017-07-05T10:21:43.516Z,7.60
2017-07-05T10:24:10.933Z,7.60
2017-07-05T10:26:38.377Z,7.90
2017-07-05T10:29:05.779Z,7.20
2017-07-05T10:31:33.201Z,6.73
2017-07-05T10:34:00.627Z,9.00
2017-07-05T10:36:28.822Z,6.73
2017-07-05T10:38:56.999Z,6.50
2017-07-05T10:41:24.411Z,6.47
2017-07-05T10:43:51.833Z,5.70
2017-07-05T10:46:19.868Z,6.00
2017-07-05T10:48:48.055Z,7.20
2017-07-05T10:51:15.508Z,6.40
2017-07-05T10:53:43.725Z,7.70
2017-07-05T10:56:11.180Z,7.03
2017-07-05T10:58:38.852Z,5.37
2017-07-05T11:01:06.268Z,5.80
2017-07-05T11:03:33.687Z,5.73
2017-07-05T11:06:01.867Z,5.63
2017-07-05T11:08:30.085Z,5.43
2017-07-05T11:10:57.521Z,29.87
2017-07-05T11:13:25.701Z,22.70
2017-07-05T11:15:53.183Z,55.17
2017-07-05T11:18:20.640Z,16.07
2017-07-05T11:20:48.329Z,17.27
2017-07-05T11:23:15.757Z,10.37
2017-07-05T11:25:43.163Z,6.20
2017-07-05T11:28:11.347Z,6.53
2017-07-05T11:30:39.536Z,6.33
2017-07-05T11:33:06.969Z,5.47
2017-07-05T11:35:35.716Z,4.87
2017-07-05T11:38:03.137Z,5.50
2017-07-05T11:40:30.803Z,7.23
2017-07-05T11:42:58.215Z,5.80
2017-07-05T11:45:25.628Z,5.73
2017-07-05T11:47:53.104Z,6.00
2017-07-05T11:50:20.504Z,6.10
2017-07-05T11:52:48.683Z,5.60
2017-07-05T11:55:16.099Z,5.70
2017-07-05T11:57:43.520Z,5.80
2017-07-05T12:00:11.605Z,6.43
2017-07-05T12:02:39.011Z,5.73
2017-07-05T12:05:07.199Z,5.70
2017-07-05T12:07:35.338Z,5.10
2017-07-05T12:10:02.741Z,5.83
2017-07-05T12:12:30.166Z,5.63
2017-07-05T12:14:57.580Z,5.17
2017-07-05T12:17:24.991Z,7.33
2017-07-05T12:19:52.464Z,5.90
2017-07-05T12:22:19.921Z,5.50
2017-07-05T12:24:47.387Z,14.17
2017-07-05T12:27:15.615Z,7.57
2017-07-05T12:29:43.859Z,6.00
2017-07-05T12:32:11.298Z,4.90
2017-07-05T12:34:38.751Z,5.20
2017-07-05T12:37:06.196Z,7.03
2017-07-05T12:39:33.616Z,6.00
2017-07-05T12:42:01.791Z,5.23
2017-07-05T12:44:29.989Z,8.30
2017-07-05T12:46:57.401Z,6.13
2017-07-05T12:49:24.912Z,7.10
2017-07-05T12:51:52.336Z,6.00
2017-07-05T12:54:20.692Z,6.60
2017-07-05T12:56:48.114Z,6.03
2017-07-05T12:59:15.567Z,6.87
2017-07-05T13:01:43.023Z,5.70
2017-07-05T13:04:11.187Z,6.60
2017-07-05T13:06:38.583Z,8.23
2017-07-05T13:09:06.052Z,5.37
2017-07-05T13:11:34.272Z,7.37
2017-07-05T13:14:01.722Z,6.17
2017-07-05T13:16:29.149Z,7.40
2017-07-05T13:18:57.320Z,6.03
2017-07-05T13:21:25.527Z,6.03
2017-07-05T13:23:52.939Z,5.40
2017-07-05T13:26:21.130Z,6.00
2017-07-05T13:28:50.071Z,6.17
2017-07-05T13:31:17.483Z,6.03
2017-07-05T13:33:44.914Z,6.50
2017-07-05T13:36:12.331Z,6.67
2017-07-05T13:38:39.759Z,6.00
2017-07-05T13:41:07.180Z,6.10
2017-07-05T13:43:34.966Z,8.43
2017-07-05T13:46:02.395Z,8.13
2017-07-05T13:48:29.808Z,6.47
2017-07-05T13:50:57.220Z,7.47
2017-07-05T13:53:25.404Z,10.20
2017-07-05T13:55:53.588Z,7.57
2017-07-05T13:58:21.004Z,7.50
2017-07-05T14:00:48.421Z,7.40
2017-07-05T14:03:15.831Z,7.97
2017-07-05T14:05:44.054Z,8.70
2017-07-05T14:08:11.471Z,8.70
2017-07-05T14:10:39.647Z,7.73
2017-07-05T14:13:07.065Z,7.80
2017-07-05T14:15:35.012Z,8.40
2017-07-05T14:18:02.426Z,8.27
2017-07-05T14:20:30.297Z,7.80
2017-07-05T14:22:57.823Z,8.00
2017-07-05T14:25:25.248Z,8.10
2017-07-05T14:27:52.661Z,9.23
2017-07-05T14:30:21.749Z,7.10
2017-07-05T14:32:49.935Z,8.87
2017-07-05T14:35:17.347Z,8.63
2017-07-05T14:37:44.759Z,8.90
2017-07-05T14:40:12.850Z,8.37
2017-07-05T14:42:40.308Z,7.33
2017-07-05T14:45:07.723Z,8.80
2017-07-05T14:47:35.900Z,8.60
2017-07-05T14:50:04.075Z,8.53
2017-07-05T14:52:31.488Z,8.33
2017-07-05T14:54:58.908Z,8.07
2017-07-05T14:57:26.319Z,8.73
2017-07-05T14:59:54.759Z,7.30
2017-07-05T15:02:22.175Z,7.07
2017-07-05T15:04:50.355Z,8.20
2017-07-05T15:07:17.781Z,7.27
2017-07-05T15:09:45.199Z,7.50
2017-07-05T15:12:12.616Z,6.90
2017-07-05T15:14:40.024Z,5.87
2017-07-05T15:17:07.455Z,6.83
2017-07-05T15:19:34.876Z,6.13
2017-07-05T15:22:03.092Z,5.70
2017-07-05T15:24:30.836Z,6.00
2017-07-05T15:26:58.272Z,5.93
2017-07-05T15:29:26.480Z,6.83
2017-07-05T15:31:53.944Z,6.90
2017-07-05T15:34:21.371Z,6.20
2017-07-05T15:36:49.546Z,7.23
2017-07-05T15:39:16.964Z,7.07
2017-07-05T15:41:45.253Z,7.10
2017-07-05T15:44:13.476Z,6.70
2017-07-05T15:46:40.892Z,7.17
2017-07-05T15:49:09.203Z,6.90
2017-07-05T15:51:36.594Z,6.83
2017-07-05T15:54:04.003Z,6.63
2017-07-05T15:56:31.427Z,6.67
2017-07-05T15:58:59.613Z,7.10
2017-07-05T16:01:27.102Z,6.70
2017-07-05T16:03:54.514Z,6.00
2017-07-05T16:06:22.697Z,6.90
2017-07-05T16:08:50.167Z,5.83
2017-07-05T16:11:17.527Z,7.80
2017-07-05T16:13:45.540Z,5.30
2017-07-05T16:16:12.955Z,6.30
2017-07-05T16:18:40.354Z,5.93
2017-07-05T16:21:07.769Z,5.97
2017-07-05T16:23:35.183Z,5.17
2017-07-05T16:26:03.402Z,5.77
2017-07-05T16:28:30.791Z,4.97
2017-07-05T16:30:58.216Z,5.53
2017-07-05T16:35:59.624Z,5.70
2017-07-05T16:38:27.037Z,5.40
2017-07-05T16:40:54.448Z,5.00
2017-07-05T16:43:23.286Z,5.60
2017-07-05T16:45:50.698Z,5.20
2017-07-05T16:48:18.879Z,5.57
2017-07-05T16:50:46.800Z,5.13
2017-07-05T16:53:14.239Z,5.73
2017-07-05T16:55:42.028Z,5.80
2017-07-05T16:58:09.563Z,5.00
2017-07-05T17:00:36.975Z,5.33
2017-07-05T17:03:05.191Z,5.93
2017-07-05T17:05:32.613Z,6.07
2017-07-05T17:08:00.029Z,5.93
2017-07-05T17:10:27.479Z,5.20
2017-07-05T17:12:54.896Z,4.70
2017-07-05T17:15:22.324Z,5.67
2017-07-05T17:17:50.491Z,4.80
2017-07-05T17:20:18.682Z,5.23
2017-07-05T17:22:46.100Z,5.27
2017-07-05T17:25:13.517Z,4.63
2017-07-05T17:27:41.248Z,4.57
2017-07-05T17:30:09.448Z,5.80
2017-07-05T17:32:36.869Z,5.20
2017-07-05T17:35:05.059Z,4.83
2017-07-05T17:37:32.563Z,4.80
2017-07-05T17:39:59.972Z,4.60
2017-07-05T17:42:27.466Z,4.80
2017-07-05T17:44:54.879Z,4.77
2017-07-05T17:47:22.293Z,4.07
2017-07-05T17:49:49.703Z,4.70
2017-07-05T17:52:17.115Z,4.63
2017-07-05T17:54:45.312Z,4.33
2017-07-05T17:57:13.480Z,4.60
2017-07-05T17:59:41.662Z,4.30
2017-07-05T18:02:09.080Z,5.00
2017-07-05T18:04:36.496Z,4.60
2017-07-05T18:07:03.952Z,4.70
2017-07-05T18:09:31.381Z,6.30
2017-07-05T18:11:59.544Z,5.77
2017-07-05T18:14:27.788Z,6.30
2017-07-05T18:16:55.196Z,6.50
2017-07-05T18:19:23.367Z,5.97
2017-07-05T18:21:50.937Z,5.53
2017-07-05T18:24:18.338Z,5.07
2017-07-05T18:26:45.847Z,5.60
2017-07-05T18:29:13.801Z,5.00
2017-07-05T18:31:41.222Z,5.13
2017-07-05T18:34:08.683Z,5.43
2017-07-05T18:36:36.104Z,5.63
2017-07-05T18:39:03.519Z,6.53
2017-07-05T18:41:30.935Z,6.80
2017-07-05T18:43:58.363Z,4.70
2017-07-05T18:46:25.783Z,5.20
2017-07-05T18:48:53.192Z,5.00
2017-07-05T18:51:20.615Z,5.27
2017-07-05T18:53:48.023Z,4.57
2017-07-05T18:56:16.207Z,5.87
2017-07-05T18:58:44.384Z,5.80
2017-07-05T19:01:12.587Z,5.63
2017-07-05T19:03:39.999Z,4.87
2017-07-05T19:06:09.159Z,5.23
2017-07-05T19:08:36.624Z,5.20
2017-07-05T19:11:04.053Z,4.70
2017-07-05T19:13:31.459Z,5.37
2017-07-05T19:15:59.635Z,5.30
2017-07-05T19:18:27.817Z,6.20
2017-07-05T19:20:56.005Z,5.80
2017-07-05T19:23:23.410Z,5.80
2017-07-05T19:25:50.933Z,6.03
2017-07-05T19:28:18.348Z,5.90
2017-07-05T19:30:46.531Z,5.27
2017-07-05T19:33:14.723Z,4.80
2017-07-05T19:35:42.147Z,4.80
2017-07-05T19:38:09.576Z,4.93
2017-07-05T19:40:37.011Z,4.57
2017-07-05T19:43:04.431Z,5.07
2017-07-05T19:45:31.836Z,4.70
2017-07-05T19:47:59.260Z,3.97
2017-07-05T19:50:26.694Z,3.80
2017-07-05T19:52:55.647Z,4.30
2017-07-05T19:55:23.068Z,4.83
2017-07-05T19:57:50.539Z,3.90
2017-07-05T20:00:18.006Z,3.63
2017-07-05T20:02:45.416Z,4.30
2017-07-05T20:05:12.819Z,6.23
2017-07-05T20:07:40.228Z,4.30
2017-07-05T20:10:07.637Z,4.53
2017-07-05T20:12:35.057Z,4.70
2017-07-05T20:15:02.473Z,4.57
2017-07-05T20:17:30.650Z,4.53
2017-07-05T20:19:59.659Z,5.33
2017-07-05T20:22:27.075Z,4.87
2017-07-05T20:24:54.500Z,4.10
2017-07-05T20:27:21.915Z,4.20
2017-07-05T20:29:50.105Z,4.93
2017-07-05T20:32:17.582Z,3.80
2017-07-05T20:34:44.975Z,4.70
2017-07-05T20:37:12.494Z,4.80
2017-07-05T20:39:39.881Z,4.60
2017-07-05T20:42:07.313Z,7.27
2017-07-05T20:44:34.714Z,4.60
2017-07-05T20:47:02.895Z,4.70
2017-07-05T20:49:31.091Z,4.40
2017-07-05T20:51:58.498Z,5.33
2017-07-05T20:54:25.920Z,4.40
2017-07-05T20:56:53.323Z,4.30
2017-07-05T20:59:20.740Z,4.50
2017-07-05T21:01:48.147Z,4.80
2017-07-05T21:04:16.343Z,4.13
2017-07-05T21:06:43.747Z,3.90
2017-07-05T21:09:11.167Z,4.53
2017-07-05T21:11:38.579Z,5.00
2017-07-05T21:14:06.754Z,4.10
2017-07-05T21:16:34.923Z,4.13
2017-07-05T21:19:03.103Z,5.00
2017-07-05T21:21:31.287Z,5.20
2017-07-05T21:23:59.483Z,4.77
2017-07-05T21:26:26.896Z,4.43
2017-07-05T21:28:55.075Z,4.47
2017-07-05T21:31:23.255Z,4.90
2017-07-05T21:33:52.000Z,4.50
2017-07-05T21:36:19.422Z,5.57
2017-07-05T21:38:46.835Z,4.70
2017-07-05T21:41:14.255Z,4.60
2017-07-05T21:43:41.673Z,5.50
2017-07-05T21:46:10.212Z,5.43
2017-07-05T21:48:37.620Z,5.27
2017-07-05T21:51:05.036Z,5.33
2017-07-05T21:53:32.451Z,5.10
2017-07-05T21:55:59.857Z,5.13
2017-07-05T21:58:27.391Z,5.27
2017-07-05T22:00:54.807Z,5.40
2017-07-05T22:03:22.217Z,5.27
2017-07-05T22:05:50.346Z,5.43
2017-07-05T22:08:17.801Z,5.40
2017-07-05T22:10:45.226Z,4.53
2017-07-05T22:13:13.395Z,5.10
2017-07-05T22:15:41.579Z,4.77
2017-07-05T22:18:08.996Z,6.13
2017-07-05T22:20:36.400Z,5.13
2017-07-05T22:23:03.812Z,5.10
2017-07-05T22:25:31.227Z,5.10
2017-07-05T22:27:58.643Z,5.17
2017-07-05T22:30:26.816Z,4.70
2017-07-05T22:32:54.991Z,5.20
2017-07-05T22:35:23.168Z,5.03
2017-07-05T22:37:51.347Z,4.90
2017-07-05T22:40:19.530Z,5.40
2017-07-05T22:42:46.943Z,5.33
2017-07-05T22:45:14.361Z,5.33
2017-07-05T22:47:41.772Z,5.90
2017-07-05T22:50:09.961Z,5.47
2017-07-05T22:52:38.743Z,5.40
2017-07-05T22:55:06.924Z,6.20
2017-07-05T22:57:34.332Z,5.53
2017-07-05T23:00:02.726Z,6.30
2017-07-05T23:02:30.140Z,5.90
2017-07-05T23:04:57.559Z,6.33
2017-07-05T23:07:25.740Z,6.67
2017-07-05T23:09:53.916Z,6.90
2017-07-05T23:12:21.327Z,6.37
2017-07-05T23:14:48.747Z,6.70
2017-07-05T23:17:16.156Z,6.37
2017-07-05T23:19:43.672Z,6.20
2017-07-05T23:22:11.444Z,6.30
2017-07-05T23:24:38.860Z,5.90
2017-07-05T23:27:07.704Z,6.17
2017-07-05T23:29:35.127Z,6.27
2017-07-05T23:32:02.539Z,6.13
2017-07-05T23:34:29.955Z,6.50
2017-07-05T23:36:57.384Z,6.43
2017-07-05T23:39:24.829Z,6.10
2017-07-05T23:41:52.991Z,6.00
2017-07-05T23:44:21.165Z,5.33
2017-07-05T23:46:49.343Z,5.47
2017-07-05T23:49:17.533Z,5.90
2017-07-05T23:51:44.959Z,6.20
2017-07-05T23:54:13.131Z,6.30
2017-07-05T23:56:41.317Z,6.73
2017-07-05T23:59:09.497Z,6.03
